Eikyumaru No.8 — JL6210 — position and weather

sailwx.info

Track history (hours):
 
Tides and Currents Weather Stations Pressure Air Temp Water Temp Dewpoint Dewpoint Depression Visibility Wind Speed Wind Dir Waves Ship Positions

Eikyumaru No.8

Last reported at 2018-Feb-22 07:03 UTC. Time now 2018-Feb-22 23:00 UTC.
Position N 34°42' E 134°51'.

Length 54 m.

Type: Cargo ship. MMSI: 431500105.

Date/timePositionNaut miles runAvg speedWind from/ knotsBaromVisibWave heightAir tempDewpointWater temp
2018-Feb-22 07:03N 34°42' E 134°51'0 3.4
2018-Feb-22 06:57N 34°42' E 134°51'4 8.1
2018-Feb-22 06:29N 34°42' E 134°46'7 2.4
2018-Feb-22 03:34N 34°46' E 134°39'410.5
2018-Feb-22 03:12N 34°44' E 134°42'311.6
2018-Feb-22 02:59N 34°43' E 134°45'611.8
2018-Feb-22 02:30N 34°40' E 134°51'612.3
2018-Feb-22 02:00N 34°38' E 134°58'612.1
2018-Feb-22 01:30N 34°36' E 135°05'611.2
2018-Feb-22 01:01N 34°37' E 135°12'5 9.8
2018-Feb-22 00:31N 34°39' E 135°17'0 0.1
2018-Feb-21 23:59N 34°39' E 135°17'0 0.1
2018-Feb-21 23:29N 34°39' E 135°17'0 0.3
2018-Feb-21 23:00N 34°39' E 135°17'0 0.0
2018-Feb-21 22:27N 34°39' E 135°17'0 0.0
2018-Feb-21 22:00N 34°39' E 135°17'0 0.0
2018-Feb-21 21:30N 34°39' E 135°17'0 0.0
2018-Feb-21 21:00N 34°39' E 135°17'0 0.0
2018-Feb-21 20:30N 34°39' E 135°17'0 0.0
2018-Feb-21 20:00N 34°39' E 135°17'0 0.0
2018-Feb-21 19:30N 34°39' E 135°17'0 0.0
2018-Feb-21 19:00N 34°39' E 135°17'0 0.0
2018-Feb-21 18:30N 34°39' E 135°17'0 0.0
2018-Feb-21 18:00N 34°39' E 135°17'0 0.0
2018-Feb-21 17:30N 34°39' E 135°17'0 0.0
2018-Feb-21 17:00N 34°39' E 135°17'0 0.0
2018-Feb-21 16:30N 34°39' E 135°17'0 0.0
2018-Feb-21 16:00N 34°39' E 135°17'0 0.0
2018-Feb-21 15:30N 34°39' E 135°17'0 0.0
2018-Feb-21 15:00N 34°39' E 135°17'0 0.0
2018-Feb-21 14:30N 34°39' E 135°17'0 0.0
2018-Feb-21 13:57N 34°39' E 135°17'0 0.0
2018-Feb-21 13:30N 34°39' E 135°17'0 0.0
2018-Feb-21 13:00N 34°39' E 135°17'0 0.0
2018-Feb-21 12:30N 34°39' E 135°17'0 0.0
2018-Feb-21 12:00N 34°39' E 135°17'0 0.0
2018-Feb-21 11:30N 34°39' E 135°17'0 0.0
2018-Feb-21 11:00N 34°39' E 135°17'0 0.0
2018-Feb-21 10:30N 34°39' E 135°17'0 0.0
2018-Feb-21 10:00N 34°39' E 135°17'2 3.2
2018-Feb-21 09:30N 34°38' E 135°16'5 9.7
2018-Feb-21 09:00N 34°36' E 135°10'510.3
2018-Feb-21 08:30N 34°35' E 135°04'612.2
2018-Feb-21 08:00N 34°37' E 134°57'611.7
2018-Feb-21 07:30N 34°39' E 134°51'3 0.1
2018-Feb-20 07:03N 34°43' E 134°51'1 5.4
2018-Feb-20 06:57N 34°42' E 134°50'4 9.4
2018-Feb-20 06:29N 34°43' E 134°45'6 2.3
2018-Feb-20 03:53N 34°46' E 134°39'610.8
2018-Feb-20 03:21N 34°43' E 134°45'411.1
2018-Feb-20 02:58N 34°40' E 134°49'511.4
2018-Feb-20 02:30N 34°38' E 134°55'713.3
2018-Feb-20 02:00N 34°37' E 135°03'511.0
2018-Feb-20 01:30N 34°37' E 135°09'611.4
2018-Feb-20 00:59N 34°38' E 135°16'1 2.2
2018-Feb-20 00:29N 34°39' E 135°17'0 0.0
2018-Feb-19 23:59N 34°39' E 135°17'0 0.1
2018-Feb-19 23:29N 34°39' E 135°17'0 0.4
2018-Feb-19 23:00N 34°40' E 135°17'0 0.0
2018-Feb-19 22:30N 34°40' E 135°17'0 0.0
2018-Feb-19 22:00N 34°40' E 135°17'0 0.0
2018-Feb-19 21:24N 34°40' E 135°17'0 0.0
2018-Feb-19 21:00N 34°40' E 135°17'0 0.0
2018-Feb-19 20:30N 34°40' E 135°17'0 0.0
2018-Feb-19 20:00N 34°40' E 135°17'0 0.0
2018-Feb-19 19:30N 34°40' E 135°17'0 0.0
2018-Feb-19 19:00N 34°40' E 135°17'0 0.0
2018-Feb-19 18:30N 34°40' E 135°17'0 0.0
2018-Feb-19 18:00N 34°40' E 135°17'0 0.0
2018-Feb-19 17:30N 34°40' E 135°17'0 0.0
2018-Feb-19 17:00N 34°40' E 135°17'0 0.0
2018-Feb-19 16:28N 34°40' E 135°17'0 0.0
2018-Feb-19 15:58N 34°40' E 135°17'0 0.0
2018-Feb-19 15:28N 34°40' E 135°17'0 0.0
2018-Feb-19 14:58N 34°40' E 135°17'0 0.0
2018-Feb-19 14:28N 34°40' E 135°17'0 0.0
2018-Feb-19 13:58N 34°40' E 135°17'0 0.0
2018-Feb-19 13:28N 34°40' E 135°17'0 0.0
2018-Feb-19 12:58N 34°40' E 135°17'0 0.0
2018-Feb-19 12:28N 34°40' E 135°17'0 0.0
2018-Feb-19 11:58N 34°40' E 135°17'0 0.0
2018-Feb-19 11:28N 34°40' E 135°17'0 0.0
2018-Feb-19 10:58N 34°40' E 135°17'0 0.0
2018-Feb-19 10:28N 34°40' E 135°17'0 0.0
2018-Feb-19 09:58N 34°40' E 135°17'2 3.4
2018-Feb-19 09:31N 34°38' E 135°16'5 9.6
2018-Feb-19 09:00N 34°36' E 135°11'510.3
2018-Feb-19 08:30N 34°35' E 135°05'612.2
2018-Feb-19 08:00N 34°37' E 134°57'611.6
2018-Feb-19 07:30N 34°39' E 134°51'  
2018-Feb-16 06:52N 34°42' E 134°50'3 9.3
2018-Feb-16 06:30N 34°42' E 134°46'7 2.7
2018-Feb-16 03:47N 34°47' E 134°39'310.0
2018-Feb-16 03:27N 34°44' E 134°42'510.7
2018-Feb-16 02:59N 34°42' E 134°47'510.2
2018-Feb-16 02:29N 34°39' E 134°52'611.4
2018-Feb-16 02:00N 34°38' E 134°59'612.2
2018-Feb-16 01:30N 34°36' E 135°06'611.9
2018-Feb-16 01:00N 34°37' E 135°13'4 7.2
2018-Feb-16 00:28N 34°39' E 135°17'0 0.1
2018-Feb-15 23:58N 34°39' E 135°17'0 0.1
2018-Feb-15 23:28N 34°39' E 135°17'0 0.3
2018-Feb-15 23:00N 34°39' E 135°17'0 0.0
2018-Feb-15 22:30N 34°39' E 135°17'0 0.0
2018-Feb-15 22:00N 34°39' E 135°17'0 0.0
2018-Feb-15 21:30N 34°39' E 135°17'0 0.0
2018-Feb-15 21:00N 34°39' E 135°17'0 0.0
2018-Feb-15 20:30N 34°39' E 135°17'0 0.0
2018-Feb-15 20:00N 34°39' E 135°17'0 0.0
2018-Feb-15 19:30N 34°39' E 135°17'0 0.0
2018-Feb-15 19:00N 34°39' E 135°17'0 0.0
2018-Feb-15 18:30N 34°39' E 135°17'0 0.0
2018-Feb-15 18:00N 34°39' E 135°17'0 0.0
2018-Feb-15 17:30N 34°39' E 135°17'0 0.0
2018-Feb-15 17:00N 34°39' E 135°17'0 0.0
2018-Feb-15 16:30N 34°39' E 135°17'0 0.0
2018-Feb-15 16:00N 34°39' E 135°17'0 0.0
2018-Feb-15 15:30N 34°39' E 135°17'0 0.0
2018-Feb-15 15:00N 34°39' E 135°17'0 0.0
2018-Feb-15 14:30N 34°39' E 135°17'0 0.0
2018-Feb-15 14:00N 34°39' E 135°17'0 0.0
2018-Feb-15 13:30N 34°39' E 135°17'0 0.0
2018-Feb-15 13:00N 34°39' E 135°17'0 0.0
2018-Feb-15 12:30N 34°39' E 135°17'0 0.0
2018-Feb-15 12:00N 34°39' E 135°17'0 0.0
2018-Feb-15 11:30N 34°39' E 135°17'0 0.0
2018-Feb-15 11:00N 34°39' E 135°17'0 0.0
2018-Feb-15 10:30N 34°39' E 135°17'0 0.0
2018-Feb-15 10:00N 34°39' E 135°17'3 6.8
2018-Feb-15 09:30N 34°37' E 135°14'5 9.8
2018-Feb-15 09:00N 34°36' E 135°08'510.0
2018-Feb-15 08:30N 34°36' E 135°02'510.2
2018-Feb-15 08:00N 34°37' E 134°56'510.5
2018-Feb-15 07:30N 34°40' E 134°51'3 0.1
2018-Feb-14 03:28N 34°43' E 134°51'4 8.0
2018-Feb-14 02:58N 34°39' E 134°53'4 9.5
2018-Feb-14 02:30N 34°38' E 134°58'510.8
2018-Feb-14 02:00N 34°36' E 135°04'611.1
2018-Feb-14 01:30N 34°37' E 135°11'611.0
2018-Feb-14 01:00N 34°39' E 135°17'0 0.9
2018-Feb-14 00:30N 34°39' E 135°17'0 0.0
2018-Feb-14 00:00N 34°39' E 135°17'0 0.1
2018-Feb-13 23:30N 34°39' E 135°17'0 0.3
2018-Feb-13 22:59N 34°40' E 135°17'0 0.0
2018-Feb-13 22:29N 34°40' E 135°17'0 0.0
2018-Feb-13 21:59N 34°40' E 135°17'0 0.0
2018-Feb-13 21:29N 34°40' E 135°17'0 0.0
2018-Feb-13 20:59N 34°40' E 135°17'0 0.1
2018-Feb-13 20:29N 34°40' E 135°17'0 0.1
2018-Feb-13 19:59N 34°40' E 135°17'0 0.1
2018-Feb-13 19:29N 34°40' E 135°17'0 0.0
2018-Feb-13 18:59N 34°40' E 135°17'0 0.0
2018-Feb-13 18:29N 34°40' E 135°17'0 0.0
2018-Feb-13 17:59N 34°40' E 135°17'0 0.0
2018-Feb-13 17:29N 34°40' E 135°17'0 0.0
2018-Feb-13 16:59N 34°40' E 135°17'0 0.0
2018-Feb-13 16:29N 34°40' E 135°17'0 0.0
2018-Feb-13 15:59N 34°40' E 135°17'0 0.0
2018-Feb-13 15:29N 34°40' E 135°17'0 0.0
2018-Feb-13 14:59N 34°40' E 135°17'0 0.0
2018-Feb-13 14:29N 34°40' E 135°17'0 0.1
2018-Feb-13 13:59N 34°39' E 135°17'0 0.0
2018-Feb-13 13:29N 34°40' E 135°17'0 0.0
2018-Feb-13 12:59N 34°40' E 135°17'0 0.1
2018-Feb-13 12:29N 34°40' E 135°17'0 0.0
2018-Feb-13 11:59N 34°40' E 135°17'0 0.0
2018-Feb-13 11:29N 34°40' E 135°17'0 0.0
2018-Feb-13 10:59N 34°40' E 135°17'0 0.0
2018-Feb-13 10:29N 34°40' E 135°17'0 0.0
2018-Feb-13 09:59N 34°40' E 135°17'0 0.0
2018-Feb-13 09:29N 34°40' E 135°17'0 0.2
2018-Feb-13 09:00N 34°39' E 135°17'5 9.3
2018-Feb-13 08:30N 34°36' E 135°13'510.0
2018-Feb-13 08:00N 34°33' E 135°08'5 9.3
2018-Feb-13 07:30N 34°31' E 135°04'5 9.8
2018-Feb-13 07:00N 34°28' E 134°59'4 7.6
2018-Feb-13 06:29N 34°26' E 134°55'0 0.0
2018-Feb-13 05:59N 34°26' E 134°55'0 0.0
2018-Feb-13 05:29N 34°26' E 134°55'0 0.0
2018-Feb-13 04:59N 34°26' E 134°55'0 0.0
2018-Feb-13 04:29N 34°26' E 134°55'0 0.0
2018-Feb-13 03:59N 34°26' E 134°55'0 0.0
2018-Feb-13 03:29N 34°26' E 134°55'0 0.0
2018-Feb-13 02:59N 34°26' E 134°55'0 0.0
2018-Feb-13 02:29N 34°26' E 134°55'0 0.0
2018-Feb-13 01:59N 34°26' E 134°55'0 0.0
2018-Feb-13 01:29N 34°26' E 134°55'0 0.0
2018-Feb-13 00:59N 34°26' E 134°55'0 0.0
2018-Feb-13 00:29N 34°26' E 134°55'1 2.8
2018-Feb-13 00:00N 34°27' E 134°56'5 9.8
2018-Feb-12 23:30N 34°30' E 134°60'5 9.1
2018-Feb-12 23:00N 34°34' E 135°02'3 5.7
2018-Feb-12 22:30N 34°37' E 135°01'4 7.9
2018-Feb-12 22:00N 34°36' E 134°56'4 8.5
2018-Feb-12 21:29N 34°39' E 134°52'  
Track history (hours):
 
Tides and Currents Weather Stations Pressure Air Temp Water Temp Dewpoint Dewpoint Depression Visibility Wind Speed Wind Dir Waves Ship Positions

Eikyumaru No.8

Last reported at 2018-Feb-22 07:03 UTC. Time now 2018-Feb-22 23:00 UTC.
Position N 34°42' E 134°51'.

Length 54 m.

Type: Cargo ship. MMSI: 431500105.

Date/timePositionNaut miles runAvg speedWind from/ knotsBaromVisibWave heightAir tempDewpointWater temp
2018-Feb-22 07:03N 34°42' E 134°51'0 3.4
2018-Feb-22 06:57N 34°42' E 134°51'4 8.1
2018-Feb-22 06:29N 34°42' E 134°46'7 2.4
2018-Feb-22 03:34N 34°46' E 134°39'410.5
2018-Feb-22 03:12N 34°44' E 134°42'311.6
2018-Feb-22 02:59N 34°43' E 134°45'611.8
2018-Feb-22 02:30N 34°40' E 134°51'612.3
2018-Feb-22 02:00N 34°38' E 134°58'612.1
2018-Feb-22 01:30N 34°36' E 135°05'611.2
2018-Feb-22 01:01N 34°37' E 135°12'5 9.8
2018-Feb-22 00:31N 34°39' E 135°17'0 0.1
2018-Feb-21 23:59N 34°39' E 135°17'0 0.1
2018-Feb-21 23:29N 34°39' E 135°17'0 0.3
2018-Feb-21 23:00N 34°39' E 135°17'0 0.0
2018-Feb-21 22:27N 34°39' E 135°17'0 0.0
2018-Feb-21 22:00N 34°39' E 135°17'0 0.0
2018-Feb-21 21:30N 34°39' E 135°17'0 0.0
2018-Feb-21 21:00N 34°39' E 135°17'0 0.0
2018-Feb-21 20:30N 34°39' E 135°17'0 0.0
2018-Feb-21 20:00N 34°39' E 135°17'0 0.0
2018-Feb-21 19:30N 34°39' E 135°17'0 0.0
2018-Feb-21 19:00N 34°39' E 135°17'0 0.0
2018-Feb-21 18:30N 34°39' E 135°17'0 0.0
2018-Feb-21 18:00N 34°39' E 135°17'0 0.0
2018-Feb-21 17:30N 34°39' E 135°17'0 0.0
2018-Feb-21 17:00N 34°39' E 135°17'0 0.0
2018-Feb-21 16:30N 34°39' E 135°17'0 0.0
2018-Feb-21 16:00N 34°39' E 135°17'0 0.0
2018-Feb-21 15:30N 34°39' E 135°17'0 0.0
2018-Feb-21 15:00N 34°39' E 135°17'0 0.0
2018-Feb-21 14:30N 34°39' E 135°17'0 0.0
2018-Feb-21 13:57N 34°39' E 135°17'0 0.0
2018-Feb-21 13:30N 34°39' E 135°17'0 0.0
2018-Feb-21 13:00N 34°39' E 135°17'0 0.0
2018-Feb-21 12:30N 34°39' E 135°17'0 0.0
2018-Feb-21 12:00N 34°39' E 135°17'0 0.0
2018-Feb-21 11:30N 34°39' E 135°17'0 0.0
2018-Feb-21 11:00N 34°39' E 135°17'0 0.0
2018-Feb-21 10:30N 34°39' E 135°17'0 0.0
2018-Feb-21 10:00N 34°39' E 135°17'2 3.2
2018-Feb-21 09:30N 34°38' E 135°16'5 9.7
2018-Feb-21 09:00N 34°36' E 135°10'510.3
2018-Feb-21 08:30N 34°35' E 135°04'612.2
2018-Feb-21 08:00N 34°37' E 134°57'611.7
2018-Feb-21 07:30N 34°39' E 134°51'3 0.1
2018-Feb-20 07:03N 34°43' E 134°51'1 5.4
2018-Feb-20 06:57N 34°42' E 134°50'4 9.4
2018-Feb-20 06:29N 34°43' E 134°45'6 2.3
2018-Feb-20 03:53N 34°46' E 134°39'610.8
2018-Feb-20 03:21N 34°43' E 134°45'411.1
2018-Feb-20 02:58N 34°40' E 134°49'511.4
2018-Feb-20 02:30N 34°38' E 134°55'713.3
2018-Feb-20 02:00N 34°37' E 135°03'511.0
2018-Feb-20 01:30N 34°37' E 135°09'611.4
2018-Feb-20 00:59N 34°38' E 135°16'1 2.2
2018-Feb-20 00:29N 34°39' E 135°17'0 0.0
2018-Feb-19 23:59N 34°39' E 135°17'0 0.1
2018-Feb-19 23:29N 34°39' E 135°17'0 0.4
2018-Feb-19 23:00N 34°40' E 135°17'0 0.0
2018-Feb-19 22:30N 34°40' E 135°17'0 0.0
2018-Feb-19 22:00N 34°40' E 135°17'0 0.0
2018-Feb-19 21:24N 34°40' E 135°17'0 0.0
2018-Feb-19 21:00N 34°40' E 135°17'0 0.0
2018-Feb-19 20:30N 34°40' E 135°17'0 0.0
2018-Feb-19 20:00N 34°40' E 135°17'0 0.0
2018-Feb-19 19:30N 34°40' E 135°17'0 0.0
2018-Feb-19 19:00N 34°40' E 135°17'0 0.0
2018-Feb-19 18:30N 34°40' E 135°17'0 0.0
2018-Feb-19 18:00N 34°40' E 135°17'0 0.0
2018-Feb-19 17:30N 34°40' E 135°17'0 0.0
2018-Feb-19 17:00N 34°40' E 135°17'0 0.0
2018-Feb-19 16:28N 34°40' E 135°17'0 0.0
2018-Feb-19 15:58N 34°40' E 135°17'0 0.0
2018-Feb-19 15:28N 34°40' E 135°17'0 0.0
2018-Feb-19 14:58N 34°40' E 135°17'0 0.0
2018-Feb-19 14:28N 34°40' E 135°17'0 0.0
2018-Feb-19 13:58N 34°40' E 135°17'0 0.0
2018-Feb-19 13:28N 34°40' E 135°17'0 0.0
2018-Feb-19 12:58N 34°40' E 135°17'0 0.0
2018-Feb-19 12:28N 34°40' E 135°17'0 0.0
2018-Feb-19 11:58N 34°40' E 135°17'0 0.0
2018-Feb-19 11:28N 34°40' E 135°17'0 0.0
2018-Feb-19 10:58N 34°40' E 135°17'0 0.0
2018-Feb-19 10:28N 34°40' E 135°17'0 0.0
2018-Feb-19 09:58N 34°40' E 135°17'2 3.4
2018-Feb-19 09:31N 34°38' E 135°16'5 9.6
2018-Feb-19 09:00N 34°36' E 135°11'510.3
2018-Feb-19 08:30N 34°35' E 135°05'612.2
2018-Feb-19 08:00N 34°37' E 134°57'611.6
2018-Feb-19 07:30N 34°39' E 134°51'  
2018-Feb-16 06:52N 34°42' E 134°50'3 9.3
2018-Feb-16 06:30N 34°42' E 134°46'7 2.7
2018-Feb-16 03:47N 34°47' E 134°39'310.0
2018-Feb-16 03:27N 34°44' E 134°42'510.7
2018-Feb-16 02:59N 34°42' E 134°47'510.2
2018-Feb-16 02:29N 34°39' E 134°52'611.4
2018-Feb-16 02:00N 34°38' E 134°59'612.2
2018-Feb-16 01:30N 34°36' E 135°06'611.9
2018-Feb-16 01:00N 34°37' E 135°13'4 7.2
2018-Feb-16 00:28N 34°39' E 135°17'0 0.1
2018-Feb-15 23:58N 34°39' E 135°17'0 0.1
2018-Feb-15 23:28N 34°39' E 135°17'0 0.3
2018-Feb-15 23:00N 34°39' E 135°17'0 0.0
2018-Feb-15 22:30N 34°39' E 135°17'0 0.0
2018-Feb-15 22:00N 34°39' E 135°17'0 0.0
2018-Feb-15 21:30N 34°39' E 135°17'0 0.0
2018-Feb-15 21:00N 34°39' E 135°17'0 0.0
2018-Feb-15 20:30N 34°39' E 135°17'0 0.0
2018-Feb-15 20:00N 34°39' E 135°17'0 0.0
2018-Feb-15 19:30N 34°39' E 135°17'0 0.0
2018-Feb-15 19:00N 34°39' E 135°17'0 0.0
2018-Feb-15 18:30N 34°39' E 135°17'0 0.0
2018-Feb-15 18:00N 34°39' E 135°17'0 0.0
2018-Feb-15 17:30N 34°39' E 135°17'0 0.0
2018-Feb-15 17:00N 34°39' E 135°17'0 0.0
2018-Feb-15 16:30N 34°39' E 135°17'0 0.0
2018-Feb-15 16:00N 34°39' E 135°17'0 0.0
2018-Feb-15 15:30N 34°39' E 135°17'0 0.0
2018-Feb-15 15:00N 34°39' E 135°17'0 0.0
2018-Feb-15 14:30N 34°39' E 135°17'0 0.0
2018-Feb-15 14:00N 34°39' E 135°17'0 0.0
2018-Feb-15 13:30N 34°39' E 135°17'0 0.0
2018-Feb-15 13:00N 34°39' E 135°17'0 0.0
2018-Feb-15 12:30N 34°39' E 135°17'0 0.0
2018-Feb-15 12:00N 34°39' E 135°17'0 0.0
2018-Feb-15 11:30N 34°39' E 135°17'0 0.0
2018-Feb-15 11:00N 34°39' E 135°17'0 0.0
2018-Feb-15 10:30N 34°39' E 135°17'0 0.0
2018-Feb-15 10:00N 34°39' E 135°17'3 6.8
2018-Feb-15 09:30N 34°37' E 135°14'5 9.8
2018-Feb-15 09:00N 34°36' E 135°08'510.0
2018-Feb-15 08:30N 34°36' E 135°02'510.2
2018-Feb-15 08:00N 34°37' E 134°56'510.5
2018-Feb-15 07:30N 34°40' E 134°51'3 0.1
2018-Feb-14 03:28N 34°43' E 134°51'4 8.0
2018-Feb-14 02:58N 34°39' E 134°53'4 9.5
2018-Feb-14 02:30N 34°38' E 134°58'510.8
2018-Feb-14 02:00N 34°36' E 135°04'611.1
2018-Feb-14 01:30N 34°37' E 135°11'611.0
2018-Feb-14 01:00N 34°39' E 135°17'0 0.9
2018-Feb-14 00:30N 34°39' E 135°17'0 0.0
2018-Feb-14 00:00N 34°39' E 135°17'0 0.1
2018-Feb-13 23:30N 34°39' E 135°17'0 0.3
2018-Feb-13 22:59N 34°40' E 135°17'0 0.0
2018-Feb-13 22:29N 34°40' E 135°17'0 0.0
2018-Feb-13 21:59N 34°40' E 135°17'0 0.0
2018-Feb-13 21:29N 34°40' E 135°17'0 0.0
2018-Feb-13 20:59N 34°40' E 135°17'0 0.1
2018-Feb-13 20:29N 34°40' E 135°17'0 0.1
2018-Feb-13 19:59N 34°40' E 135°17'0 0.1
2018-Feb-13 19:29N 34°40' E 135°17'0 0.0
2018-Feb-13 18:59N 34°40' E 135°17'0 0.0
2018-Feb-13 18:29N 34°40' E 135°17'0 0.0
2018-Feb-13 17:59N 34°40' E 135°17'0 0.0
2018-Feb-13 17:29N 34°40' E 135°17'0 0.0
2018-Feb-13 16:59N 34°40' E 135°17'0 0.0
2018-Feb-13 16:29N 34°40' E 135°17'0 0.0
2018-Feb-13 15:59N 34°40' E 135°17'0 0.0
2018-Feb-13 15:29N 34°40' E 135°17'0 0.0
2018-Feb-13 14:59N 34°40' E 135°17'0 0.0
2018-Feb-13 14:29N 34°40' E 135°17'0 0.1
2018-Feb-13 13:59N 34°39' E 135°17'0 0.0
2018-Feb-13 13:29N 34°40' E 135°17'0 0.0
2018-Feb-13 12:59N 34°40' E 135°17'0 0.1
2018-Feb-13 12:29N 34°40' E 135°17'0 0.0
2018-Feb-13 11:59N 34°40' E 135°17'0 0.0
2018-Feb-13 11:29N 34°40' E 135°17'0 0.0
2018-Feb-13 10:59N 34°40' E 135°17'0 0.0
2018-Feb-13 10:29N 34°40' E 135°17'0 0.0
2018-Feb-13 09:59N 34°40' E 135°17'0 0.0
2018-Feb-13 09:29N 34°40' E 135°17'0 0.2
2018-Feb-13 09:00N 34°39' E 135°17'5 9.3
2018-Feb-13 08:30N 34°36' E 135°13'510.0
2018-Feb-13 08:00N 34°33' E 135°08'5 9.3
2018-Feb-13 07:30N 34°31' E 135°04'5 9.8
2018-Feb-13 07:00N 34°28' E 134°59'4 7.6
2018-Feb-13 06:29N 34°26' E 134°55'0 0.0
2018-Feb-13 05:59N 34°26' E 134°55'0 0.0
2018-Feb-13 05:29N 34°26' E 134°55'0 0.0
2018-Feb-13 04:59N 34°26' E 134°55'0 0.0
2018-Feb-13 04:29N 34°26' E 134°55'0 0.0
2018-Feb-13 03:59N 34°26' E 134°55'0 0.0
2018-Feb-13 03:29N 34°26' E 134°55'0 0.0
2018-Feb-13 02:59N 34°26' E 134°55'0 0.0
2018-Feb-13 02:29N 34°26' E 134°55'0 0.0
2018-Feb-13 01:59N 34°26' E 134°55'0 0.0
2018-Feb-13 01:29N 34°26' E 134°55'0 0.0
2018-Feb-13 00:59N 34°26' E 134°55'0 0.0
2018-Feb-13 00:29N 34°26' E 134°55'1 2.8
2018-Feb-13 00:00N 34°27' E 134°56'5 9.8
2018-Feb-12 23:30N 34°30' E 134°60'5 9.1
2018-Feb-12 23:00N 34°34' E 135°02'3 5.7
2018-Feb-12 22:30N 34°37' E 135°01'4 7.9
2018-Feb-12 22:00N 34°36' E 134°56'4 8.5
2018-Feb-12 21:29N 34°39' E 134°52'  

Dump ship's entire track history